Time;durP1;ratioP1;P1;durP2;ratioP2;P2;SDS_P1;SDS_P2;PMS_P1;PMS_P2;Temp;Humidity;BMP_temperature;BMP_pressure;BME280_temperature;BME280_humidity;BME280_pressure;Samples;Min_cycle;Max_cycle;Signal;HPM_P1;HPM_P2
2021/05/17 00:01:02;;;;;;;4.70;3.20;;;;;;;;;;4378952;32;21205;-69
2021/05/17 00:03:28;;;;;;;4.40;2.90;;;;;;;;;;4378884;32;20073;-69
2021/05/17 00:05:55;;;;;;;5.18;3.05;;;;;;;;;;4366341;32;20130;-69
2021/05/17 00:08:22;;;;;;;6.32;3.42;;;;;;;;;;4379424;32;20076;-68
2021/05/17 00:10:48;;;;;;;5.00;3.30;;;;;;;;;;4367129;32;20103;-69
2021/05/17 00:13:15;;;;;;;5.78;3.37;;;;;;;;;;4378335;32;20054;-70
2021/05/17 00:15:42;;;;;;;4.95;3.25;;;;;;;;;;4366116;32;20511;-69
2021/05/17 00:18:09;;;;;;;3.17;2.40;;;;;;;;;;4353262;32;20098;-69
2021/05/17 00:20:36;;;;;;;4.85;3.00;;;;;;;;;;4390873;32;20062;-69
2021/05/17 00:23:02;;;;;;;5.10;3.00;;;;;;;;;;4390488;32;20466;-69
2021/05/17 00:25:29;;;;;;;3.97;3.08;;;;;;;;;;4390662;32;20492;-70
2021/05/17 00:27:57;;;;;;;4.95;3.35;;;;;;;;;;4378246;32;20077;-69
2021/05/17 00:30:28;;;;;;;5.10;3.22;;;;;;;;;;4353040;32;20544;-69
2021/05/17 00:32:55;;;;;;;5.68;3.40;;;;;;;;;;4390879;32;20096;-69
2021/05/17 00:35:23;;;;;;;8.65;3.60;;;;;;;;;;4378146;32;20089;-69
2021/05/17 00:37:49;;;;;;;4.22;3.08;;;;;;;;;;4379158;32;20541;-69
2021/05/17 00:40:16;;;;;;;4.25;3.00;;;;;;;;;;4353810;32;20503;-69
2021/05/17 00:42:43;;;;;;;8.45;3.72;;;;;;;;;;4353298;32;20130;-69
2021/05/17 00:45:12;;;;;;;4.62;3.25;;;;;;;;;;4365949;32;20080;-69
2021/05/17 00:47:43;;;;;;;4.43;3.03;;;;;;;;;;4378315;32;20142;-69
2021/05/17 00:50:12;;;;;;;5.60;3.40;;;;;;;;;;4353393;32;20069;-69
2021/05/17 00:52:39;;;;;;;4.97;3.28;;;;;;;;;;4365831;32;20070;-69
2021/05/17 00:55:06;;;;;;;5.32;3.08;;;;;;;;;;4377554;32;20079;-69
2021/05/17 00:57:33;;;;;;;3.85;2.95;;;;;;;;;;4353113;32;20078;-69
2021/05/17 01:00:00;;;;;;;6.03;3.42;;;;;;;;;;4378003;32;20084;-69
2021/05/17 01:02:27;;;;;;;4.78;3.03;;;;;;;;;;4365233;32;20448;-70
2021/05/17 01:04:53;;;;;;;5.72;3.15;;;;;;;;;;4365465;32;20085;-69
2021/05/17 01:07:23;;;;;;;5.22;3.20;;;;;;;;;;4377919;32;20077;-69
2021/05/17 01:09:50;;;;;;;5.07;3.47;;;;;;;;;;4366298;32;20073;-69
2021/05/17 01:12:17;;;;;;;7.18;3.40;;;;;;;;;;4390880;32;20145;-69
2021/05/17 01:14:43;;;;;;;5.32;3.40;;;;;;;;;;4353217;32;20496;-69
2021/05/17 01:17:10;;;;;;;5.12;3.45;;;;;;;;;;4352788;32;20086;-69
2021/05/17 01:19:46;;;;;;;7.07;3.20;;;;;;;;;;4365643;32;20101;-68
2021/05/17 01:22:22;;;;;;;4.47;3.20;;;;;;;;;;4365915;32;20173;-69
2021/05/17 01:24:49;;;;;;;;;;;;;;;;;;4379137;32;20491;-68
2021/05/17 01:27:15;;;;;;;5.03;3.58;;;;;;;;;;4378023;32;20018;-68
2021/05/17 01:29:42;;;;;;;4.82;3.47;;;;;;;;;;4377603;32;20054;-69
2021/05/17 01:32:09;;;;;;;9.25;3.67;;;;;;;;;;4377099;32;20070;-69
2021/05/17 01:34:39;;;;;;;5.07;3.45;;;;;;;;;;4364867;32;20081;-69
2021/05/17 01:37:09;;;;;;;8.60;3.50;;;;;;;;;;4362769;32;20531;-69
2021/05/17 01:39:36;;;;;;;4.62;3.30;;;;;;;;;;4363444;32;20152;-69
2021/05/17 01:42:03;;;;;;;5.60;3.50;;;;;;;;;;4362802;32;20082;-69
2021/05/17 01:44:29;;;;;;;6.30;3.72;;;;;;;;;;4338528;32;20162;-69
2021/05/17 01:46:59;;;;;;;5.80;3.62;;;;;;;;;;4374981;32;20159;-70
2021/05/17 01:49:26;;;;;;;6.72;3.75;;;;;;;;;;4374911;32;20069;-69
2021/05/17 01:51:53;;;;;;;5.57;3.20;;;;;;;;;;4352753;32;20089;-69
2021/05/17 01:54:20;;;;;;;6.00;3.80;;;;;;;;;;4365825;32;20082;-69
2021/05/17 01:56:47;;;;;;;5.95;3.40;;;;;;;;;;4365764;32;20108;-69
2021/05/17 01:59:13;;;;;;;6.60;3.75;;;;;;;;;;4340515;32;20074;-69
2021/05/17 02:01:40;;;;;;;6.28;4.00;;;;;;;;;;4352786;32;20165;-69
2021/05/17 02:04:07;;;;;;;5.30;3.50;;;;;;;;;;4353475;32;20159;-69
2021/05/17 02:06:34;;;;;;;5.68;3.83;;;;;;;;;;4365223;32;20568;-69
2021/05/17 02:09:00;;;;;;;6.43;4.00;;;;;;;;;;4377719;32;20471;-69
2021/05/17 02:11:27;;;;;;;6.05;3.60;;;;;;;;;;4365560;32;20167;-69
2021/05/17 02:13:54;;;;;;;5.85;3.70;;;;;;;;;;4377663;32;20086;-70
2021/05/17 02:16:20;;;;;;;6.32;3.97;;;;;;;;;;4365971;32;20084;-69
2021/05/17 02:18:48;;;;;;;6.05;4.15;;;;;;;;;;4366157;32;20097;-69
2021/05/17 02:21:16;;;;;;;6.87;4.20;;;;;;;;;;4365373;32;20081;-69
2021/05/17 02:23:42;;;;;;;6.75;3.95;;;;;;;;;;4375925;32;20077;-68
2021/05/17 02:26:10;;;;;;;5.32;3.85;;;;;;;;;;4355893;32;20147;-69
2021/05/17 02:28:37;;;;;;;6.40;4.00;;;;;;;;;;4392137;32;20157;-68
2021/05/17 02:31:05;;;;;;;7.37;4.37;;;;;;;;;;4380084;32;20073;-69
2021/05/17 02:33:32;;;;;;;5.55;3.80;;;;;;;;;;4379916;32;20147;-69
2021/05/17 02:35:59;;;;;;;8.23;3.92;;;;;;;;;;4379850;32;20085;-69
2021/05/17 02:38:25;;;;;;;7.47;3.80;;;;;;;;;;4379956;32;20153;-69
2021/05/17 02:40:52;;;;;;;9.02;4.00;;;;;;;;;;4392387;32;20518;-69
2021/05/17 02:43:21;;;;;;;7.50;3.92;;;;;;;;;;4379644;32;20074;-69
2021/05/17 02:45:48;;;;;;;5.68;4.07;;;;;;;;;;4367516;32;20151;-69
2021/05/17 02:48:15;;;;;;;10.25;4.00;;;;;;;;;;4392078;32;20070;-67
2021/05/17 02:50:44;;;;;;;7.45;4.10;;;;;;;;;;4392354;32;20070;-69
2021/05/17 02:53:30;;;;;;;7.37;4.07;;;;;;;;;;4355407;32;20074;-69
2021/05/17 02:55:58;;;;;;;6.72;4.03;;;;;;;;;;4379729;32;20070;-69
2021/05/17 02:58:30;;;;;;;5.37;4.15;;;;;;;;;;4367435;32;20088;-69
2021/05/17 03:01:21;;;;;;;7.55;4.40;;;;;;;;;;4368263;32;20062;-68
2021/05/17 03:03:51;;;;;;;6.60;4.03;;;;;;;;;;4370143;32;20069;-69
2021/05/17 03:06:21;;;;;;;7.37;3.90;;;;;;;;;;4367463;32;20100;-69
2021/05/17 03:08:56;;;;;;;7.43;4.35;;;;;;;;;;4380263;32;20070;-68
2021/05/17 03:11:23;;;;;;;9.27;4.40;;;;;;;;;;4379395;32;20061;-69
2021/05/17 03:13:51;;;;;;;6.60;4.22;;;;;;;;;;4367003;32;20065;-69
2021/05/17 03:16:18;;;;;;;7.97;4.40;;;;;;;;;;4367291;32;20470;-69
2021/05/17 03:18:45;;;;;;;7.68;4.10;;;;;;;;;;4380143;32;20085;-69
2021/05/17 03:21:12;;;;;;;9.43;4.28;;;;;;;;;;4355091;32;20081;-69
